This is the latest recevied weather packets stored in our database for station/object EA1BVF-10. If no packets are shown the sender has not sent any weather packets the latest 10 day(s).
| Time | Temp. | Humidity | Pressure | Rain* | Wind** | Luminosity | Snow |
|---|---|---|---|---|---|---|---|
| 1787581551 | 16.11° C | 96% | 1028 hPa | - | - | - | - |
| 1787579751 | 16.11° C | 96% | 1028 hPa | - | - | - | - |
| 1787577951 | 15.56° C | 96% | 1028.3 hPa | - | - | - | - |
| 1787576150 | 16.11° C | 96% | 1028.2 hPa | - | - | - | - |
| 1787574353 | 16.11° C | 95% | 1028 hPa | - | - | - | - |
| 1787572550 | 16.11° C | 95% | 1028.1 hPa | - | - | - | - |
| 1787570750 | 16.11° C | 95% | 1027.9 hPa | - | - | - | - |
| 1787568950 | 16.11° C | 93% | 1028.1 hPa | - | - | - | - |
| 1787567150 | 16.11° C | 89% | 1028.3 hPa | - | - | - | - |
| 1787565353 | 15.56° C | 88% | 1028.4 hPa | - | - | - | - |
| 1787563545 | 15.56° C | 85% | 1028.4 hPa | - | - | - | - |
| 1787561745 | 15.56° C | 86% | 1028.5 hPa | - | - | - | - |
| 1787560118 | 15.56° C | 85% | 1028.4 hPa | - | - | - | - |
| 1787559945 | 15.56° C | 85% | 1028.4 hPa | - | - | - | - |
| 1787558145 | 15° C | 84% | 1028 hPa | - | - | - | - |
| 1787556345 | 15° C | 84% | 1028.2 hPa | - | - | - | - |
| 1787554545 | 15° C | 82% | 1028 hPa | - | - | - | - |
| 1787552745 | 14.44° C | 82% | 1027.8 hPa | - | - | - | - |
| 1787533186 | 16.11° C | 92% | 1030.1 hPa | - | - | - | - |
| 1787532997 | 16.11° C | 93% | 1030.1 hPa | - | - | - | - |
| 1787532821 | 16.11° C | 93% | 1030 hPa | - | - | - | - |
| 1787531508 | 16.11° C | 94% | 1030.3 hPa | - | - | - | - |
| 1787529705 | 16.11° C | 95% | 1030.7 hPa | - | - | - | - |
| 1787527908 | 16.11° C | 94% | 1030.8 hPa | - | - | - | - |
| 1787526108 | 16.67° C | 94% | 1031.5 hPa | - | - | - | - |
* Rain since midnight (hover to see other rain measurements)
** Current wind speed in m/s (hover to see current wind gust speed)